Time;durP1;ratioP1;P1;durP2;ratioP2;P2;SDS_P1;SDS_P2;PMS_P1;PMS_P2;Temp;Humidity;BMP_temperature;BMP_pressure;BME280_temperature;BME280_humidity;BME280_pressure;Samples;Min_cycle;Max_cycle;Signal;HPM_P1;HPM_P2
2023/03/21 00:01:55;;;;;;;86.03;47.97;;;8.90;99.90;;;;;;5045824;28;20509;-48
2023/03/21 00:04:25;;;;;;;88.88;48.42;;;8.90;99.90;;;;;;5046769;28;20037;-48
2023/03/21 00:06:51;;;;;;;93.53;50.38;;;9.00;99.90;;;;;;5049920;28;20401;-48
2023/03/21 00:09:17;;;;;;;90.82;48.03;;;9.00;99.90;;;;;;5032196;28;20040;-49
2023/03/21 00:11:42;;;;;;;95.43;49.80;;;9.00;99.90;;;;;;5049466;28;20349;-48
2023/03/21 00:14:13;;;;;;;95.90;51.83;;;9.00;99.90;;;;;;5036838;28;20284;-51
2023/03/21 00:16:39;;;;;;;89.75;49.53;;;9.00;99.90;;;;;;5040610;28;20461;-48
2023/03/21 00:19:05;;;;;;;99.53;49.05;;;9.00;99.90;;;;;;5042823;28;20040;-49
2023/03/21 00:21:32;;;;;;;;;;;9.00;99.90;;;;;;5049981;28;20482;-48
2023/03/21 00:23:59;;;;;;;91.25;50.78;;;9.00;99.90;;;;;;5040869;28;19920;-48
2023/03/21 00:26:25;;;;;;;95.30;49.40;;;9.00;99.90;;;;;;5049379;28;20465;-49
2023/03/21 00:28:51;;;;;;;100.75;54.50;;;9.00;99.90;;;;;;5048457;28;20451;-54
2023/03/21 00:31:17;;;;;;;103.88;53.40;;;9.00;99.90;;;;;;5047856;28;20172;-48
2023/03/21 00:33:43;;;;;;;99.32;50.72;;;9.00;99.90;;;;;;5035467;28;20037;-48
2023/03/21 00:36:14;;;;;;;114.32;56.92;;;9.10;99.90;;;;;;5032570;28;20033;-49
2023/03/21 00:38:40;;;;;;;103.65;54.22;;;9.10;99.90;;;;;;5040813;28;20029;-48
2023/03/21 00:41:09;;;;;;;110.75;56.97;;;9.10;99.90;;;;;;5040755;28;20060;-49
2023/03/21 00:43:35;;;;;;;109.00;55.92;;;9.10;99.90;;;;;;5037946;28;20033;-48
2023/03/21 00:46:01;;;;;;;121.15;59.50;;;9.10;99.90;;;;;;5032517;28;20456;-48
2023/03/21 00:48:28;;;;;;;112.03;57.20;;;9.10;99.90;;;;;;5030136;28;20530;-50
2023/03/21 00:50:56;;;;;;;118.68;59.10;;;9.10;99.90;;;;;;5032120;28;20502;-48
2023/03/21 00:53:22;;;;;;;102.13;57.45;;;9.10;99.90;;;;;;5034916;28;20045;-48
2023/03/21 00:55:48;;;;;;;97.85;54.75;;;9.10;99.90;;;;;;5047887;28;20094;-48
2023/03/21 00:58:14;;;;;;;;;;;9.10;99.90;;;;;;5047485;28;20448;-48
2023/03/21 01:00:40;;;;;;;96.22;51.28;;;9.10;99.90;;;;;;5034816;28;19917;-49
2023/03/21 01:03:09;;;;;;;115.10;56.60;;;9.20;99.90;;;;;;5032768;28;20069;-48
2023/03/21 01:06:05;;;;;;;100.22;52.38;;;9.20;99.90;;;;;;5030709;28;20037;-48
2023/03/21 01:08:37;;;;;;;100.82;56.03;;;9.20;99.90;;;;;;5045247;28;20079;-49
2023/03/21 01:11:09;;;;;;;107.03;55.05;;;9.20;99.90;;;;;;5030943;28;20109;-49
2023/03/21 01:13:34;;;;;;;85.15;51.53;;;9.20;99.90;;;;;;5048171;28;20025;-48
2023/03/21 01:16:00;;;;;;;85.87;50.87;;;9.20;99.90;;;;;;5042836;28;20102;-49
2023/03/21 01:18:28;;;;;;;89.03;51.47;;;9.20;99.90;;;;;;5046347;28;20040;-48
2023/03/21 01:20:56;;;;;;;83.13;48.00;;;9.20;99.90;;;;;;5046133;28;20029;-49
2023/03/21 01:23:23;;;;;;;87.50;49.85;;;9.30;99.90;;;;;;5031371;28;20519;-49
2023/03/21 01:25:51;;;;;;;77.32;48.33;;;9.30;99.90;;;;;;5030566;28;20045;-48
2023/03/21 01:28:17;;;;;;;75.55;45.20;;;9.30;99.90;;;;;;5041767;28;20041;-48
2023/03/21 01:30:47;;;;;;;70.00;42.17;;;9.30;99.90;;;;;;5040120;28;20116;-50
2023/03/21 01:33:13;;;;;;;72.43;44.05;;;9.30;99.90;;;;;;5048325;28;20094;-49
2023/03/21 01:35:39;;;;;;;68.30;43.92;;;9.30;99.90;;;;;;5045347;28;20041;-48
2023/03/21 01:38:05;;;;;;;73.90;42.83;;;9.40;99.90;;;;;;5045694;28;20143;-49
2023/03/21 01:40:31;;;;;;;66.50;42.60;;;9.40;99.90;;;;;;5040100;28;20517;-51
2023/03/21 01:42:57;;;;;;;59.60;38.92;;;9.40;99.90;;;;;;5030217;28;20094;-48
2023/03/21 01:46:06;;;;;;;63.75;40.85;;;9.40;99.90;;;;;;5030948;28;20041;-49
2023/03/21 01:48:32;;;;;;;64.28;38.95;;;9.40;99.90;;;;;;5041129;28;20037;-48
2023/03/21 01:50:58;;;;;;;;;;;9.40;99.90;;;;;;5031177;28;20041;-48
2023/03/21 01:53:28;;;;;;;64.35;39.85;;;9.40;99.90;;;;;;5038702;28;20007;-48
2023/03/21 01:55:58;;;;;;;52.15;37.17;;;9.40;99.90;;;;;;5032503;28;20045;-48
2023/03/21 01:58:24;;;;;;;56.90;38.30;;;9.50;99.90;;;;;;5030309;28;20398;-48
2023/03/21 02:00:51;;;;;;;54.90;36.30;;;9.50;99.90;;;;;;5040323;28;20447;-48
2023/03/21 02:03:17;;;;;;;52.22;36.78;;;9.50;99.90;;;;;;5041092;28;20098;-49
2023/03/21 02:05:59;;;;;;;47.80;33.08;;;9.50;99.90;;;;;;5044877;28;20390;-48
2023/03/21 02:08:25;;;;;;;50.67;33.70;;;9.50;99.90;;;;;;5044686;28;20711;-48
2023/03/21 02:10:51;;;;;;;49.53;34.50;;;9.50;99.90;;;;;;5031678;28;20033;-48
2023/03/21 02:13:17;;;;;;;41.85;30.33;;;9.50;99.90;;;;;;5033455;28;20417;-48
2023/03/21 02:16:15;;;;;;;44.58;29.50;;;9.50;99.90;;;;;;5048153;28;20073;-48
2023/03/21 02:18:46;;;;;;;;;;;9.50;99.90;;;;;;5043542;28;20037;-48
2023/03/21 02:21:22;;;;;;;41.35;28.25;;;9.60;99.90;;;;;;5030174;28;20008;-48
2023/03/21 02:24:18;;;;;;;35.28;26.63;;;9.60;99.90;;;;;;5044456;28;20036;-48
2023/03/21 02:27:02;;;;;;;39.65;26.90;;;9.60;99.90;;;;;;5046472;28;20044;-50
2023/03/21 02:29:58;;;;;;;36.13;26.50;;;9.60;99.90;;;;;;5046426;28;20040;-48
2023/03/21 02:32:48;;;;;;;37.05;25.40;;;9.60;99.90;;;;;;5033449;28;20037;-48
2023/03/21 02:35:41;;;;;;;41.42;25.23;;;9.60;99.90;;;;;;5043688;28;20076;-49
2023/03/21 02:38:13;;;;;;;39.17;26.25;;;9.60;99.90;;;;;;5043442;28;20318;-49
2023/03/21 02:41:10;;;;;;;42.13;29.05;;;9.60;99.90;;;;;;5037783;28;20037;-48
2023/03/21 02:43:45;;;;;;;41.33;29.00;;;9.60;99.90;;;;;;5028999;28;20037;-49
2023/03/21 02:46:16;;;;;;;48.80;31.33;;;9.60;99.90;;;;;;5030771;28;20061;-49
2023/03/21 02:48:53;;;;;;;44.15;30.30;;;9.60;99.90;;;;;;5043148;28;20044;-49
2023/03/21 02:51:22;;;;;;;48.17;29.50;;;9.50;99.90;;;;;;5046759;28;20573;-48
2023/03/21 02:53:53;;;;;;;47.50;29.77;;;9.50;99.90;;;;;;5047652;28;20052;-49
2023/03/21 02:56:22;;;;;;;47.35;29.75;;;9.50;99.90;;;;;;5045423;28;20045;-48
2023/03/21 02:58:48;;;;;;;50.75;32.70;;;9.50;99.90;;;;;;5031194;28;20033;-48
2023/03/21 03:01:14;;;;;;;51.00;32.47;;;9.50;99.90;;;;;;5032296;28;20065;-48
2023/03/21 03:03:39;;;;;;;54.88;34.83;;;9.50;99.90;;;;;;5044168;28;20076;-48
2023/03/21 03:06:17;;;;;;;52.47;34.47;;;9.50;99.90;;;;;;5044902;28;20442;-49
2023/03/21 03:09:02;;;;;;;53.38;34.92;;;9.50;99.90;;;;;;5028799;28;20358;-48
2023/03/21 03:11:34;;;;;;;58.40;36.05;;;9.50;99.90;;;;;;5044575;28;20422;-49
2023/03/21 03:14:43;;;;;;;55.95;36.80;;;9.50;99.90;;;;;;5045005;28;20060;-48
2023/03/21 03:17:37;;;;;;;59.42;35.60;;;9.50;99.90;;;;;;5043473;28;20044;-49
2023/03/21 03:20:17;;;;;;;56.67;37.17;;;9.50;99.90;;;;;;5043886;28;20041;-48
2023/03/21 03:23:23;;;;;;;62.67;38.33;;;9.50;99.90;;;;;;5047094;28;20071;-49
2023/03/21 03:25:55;;;;;;;60.30;37.03;;;9.50;99.90;;;;;;5039805;28;20045;-49
2023/03/21 03:28:29;;;;;;;63.25;38.10;;;9.40;99.90;;;;;;5029400;28;20042;-48
2023/03/21 03:30:57;;;;;;;60.25;37.67;;;9.40;99.90;;;;;;5042251;28;20394;-48
2023/03/21 03:33:25;;;;;;;65.40;37.65;;;9.40;99.90;;;;;;5046325;28;20496;-48
2023/03/21 03:35:54;;;;;;;59.22;38.10;;;9.40;99.90;;;;;;5049562;28;20089;-48
2023/03/21 03:38:21;;;;;;;56.13;36.42;;;9.40;99.90;;;;;;5049135;28;20044;-50
2023/03/21 03:41:00;;;;;;;54.67;34.70;;;9.40;99.90;;;;;;5045706;28;20043;-48
2023/03/21 03:43:33;;;;;;;58.15;36.05;;;9.40;99.90;;;;;;5050166;28;20037;-48
2023/03/21 03:46:39;;;;;;;61.35;35.88;;;9.40;99.90;;;;;;5033990;28;20029;-48
2023/03/21 03:49:19;;;;;;;61.20;39.60;;;9.40;99.90;;;;;;5046549;28;20052;-48
2023/03/21 03:52:08;;;;;;;62.83;39.22;;;9.40;99.90;;;;;;5049222;28;20409;-48
2023/03/21 03:54:44;;;;;;;64.55;40.25;;;9.40;99.90;;;;;;5050092;28;20679;-48
2023/03/21 03:57:12;;;;;;;67.97;39.78;;;9.40;99.90;;;;;;5046350;28;20176;-48
2023/03/21 03:59:40;;;;;;;67.55;40.05;;;9.40;99.90;;;;;;5032581;28;20041;-48
2023/03/21 04:02:06;;;;;;;75.63;41.92;;;9.40;99.90;;;;;;5046775;28;20398;-48
2023/03/21 04:04:33;;;;;;;72.03;42.55;;;9.30;99.90;;;;;;5049087;28;20036;-48
2023/03/21 04:06:58;;;;;;;71.53;41.40;;;9.30;99.90;;;;;;5035070;28;20122;-48
2023/03/21 04:09:27;;;;;;;68.82;39.28;;;9.30;99.90;;;;;;5031924;28;20498;-48
2023/03/21 04:11:53;;;;;;;63.78;39.22;;;9.30;99.90;;;;;;5034594;28;20060;-48
2023/03/21 04:14:19;;;;;;;75.07;42.28;;;9.40;99.90;;;;;;5031983;28;20526;-48
2023/03/21 04:16:45;;;;;;;67.15;39.95;;;9.40;99.90;;;;;;5032879;28;20138;-48
2023/03/21 04:19:11;;;;;;;65.75;41.53;;;9.40;99.90;;;;;;5038120;28;20476;-49
2023/03/21 04:21:37;;;;;;;64.45;38.60;;;9.30;99.90;;;;;;5047745;28;20452;-48
2023/03/21 04:24:03;;;;;;;64.20;39.97;;;9.40;99.90;;;;;;5047875;28;20025;-48
2023/03/21 04:26:31;;;;;;;61.15;37.80;;;9.40;99.90;;;;;;5042843;28;20057;-49
2023/03/21 04:29:01;;;;;;;62.08;37.40;;;9.30;99.90;;;;;;5030282;28;20077;-48
2023/03/21 04:31:30;;;;;;;62.22;37.97;;;9.30;99.90;;;;;;5039318;28;20053;-49
2023/03/21 04:34:00;;;;;;;61.35;38.35;;;9.30;99.90;;;;;;5046843;28;20098;-48
2023/03/21 04:36:29;;;;;;;58.33;36.67;;;9.30;99.90;;;;;;5038356;28;20041;-50
2023/03/21 04:38:59;;;;;;;68.90;39.92;;;9.40;99.90;;;;;;5030866;28;20042;-48
2023/03/21 04:41:28;;;;;;;67.90;37.05;;;9.30;99.90;;;;;;5031450;28;20033;-48
2023/03/21 04:43:55;;;;;;;68.00;39.78;;;9.30;99.90;;;;;;5036304;28;20494;-48
2023/03/21 04:46:21;;;;;;;65.05;38.75;;;9.30;99.90;;;;;;5046913;28;20049;-48
2023/03/21 04:48:47;;;;;;;70.75;39.97;;;9.30;99.90;;;;;;5042122;28;20087;-48
2023/03/21 04:51:13;;;;;;;71.18;39.67;;;9.30;99.90;;;;;;5032119;28;20064;-51
2023/03/21 04:53:41;;;;;;;68.00;38.30;;;9.30;99.90;;;;;;5030968;28;20046;-51
2023/03/21 04:56:07;;;;;;;63.85;38.70;;;9.30;99.90;;;;;;5030617;28;20562;-47
2023/03/21 04:58:33;;;;;;;61.75;38.17;;;9.30;99.90;;;;;;5031617;28;20121;-49
2023/03/21 05:01:01;;;;;;;72.37;42.37;;;9.30;99.90;;;;;;5029444;28;20036;-48
2023/03/21 05:03:33;;;;;;;65.07;37.17;;;9.30;99.90;;;;;;5031741;28;20290;-50
2023/03/21 05:05:59;;;;;;;65.38;38.67;;;9.30;99.90;;;;;;5031943;28;20041;-48
2023/03/21 05:08:25;;;;;;;66.15;39.22;;;9.30;99.90;;;;;;5042583;28;20532;-50
2023/03/21 05:10:51;;;;;;;62.58;37.10;;;9.30;99.90;;;;;;5048500;28;20033;-48
2023/03/21 05:13:17;;;;;;;61.88;36.42;;;9.30;99.90;;;;;;5040294;28;20033;-49
2023/03/21 05:15:42;;;;;;;67.13;39.97;;;9.30;99.90;;;;;;5048285;28;20060;-49
2023/03/21 05:18:10;;;;;;;60.73;36.50;;;9.30;99.90;;;;;;5046236;28;20072;-48
2023/03/21 05:20:41;;;;;;;68.63;37.00;;;9.30;99.90;;;;;;5047629;28;20040;-48
2023/03/21 05:23:11;;;;;;;67.22;39.22;;;9.30;99.90;;;;;;5033117;28;20243;-48
2023/03/21 05:25:38;;;;;;;61.83;37.40;;;9.30;99.90;;;;;;5033467;28;20099;-48
2023/03/21 05:28:05;;;;;;;62.92;37.83;;;9.30;99.90;;;;;;5030732;28;20029;-49
2023/03/21 05:30:31;;;;;;;67.22;37.88;;;9.30;99.90;;;;;;5030227;28;20033;-49
2023/03/21 05:32:57;;;;;;;63.40;36.25;;;9.30;99.90;;;;;;5030177;28;20044;-50
2023/03/21 05:35:23;;;;;;;61.97;34.75;;;9.20;99.90;;;;;;5031679;28;20033;-48
2023/03/21 05:37:48;;;;;;;64.73;37.67;;;9.30;99.90;;;;;;5030446;28;20410;-48
2023/03/21 05:40:14;;;;;;;59.20;34.80;;;9.20;99.90;;;;;;5030725;28;20128;-48
2023/03/21 05:42:40;;;;;;;57.35;35.83;;;9.20;99.90;;;;;;5031047;28;20631;-49
2023/03/21 05:45:06;;;;;;;58.45;34.83;;;9.20;99.90;;;;;;5033099;28;20064;-48
2023/03/21 05:47:32;;;;;;;58.90;34.72;;;9.20;99.90;;;;;;5044508;28;20052;-48
2023/03/21 05:49:57;;;;;;;57.33;34.80;;;9.20;99.90;;;;;;5048300;28;20394;-48
2023/03/21 05:52:23;;;;;;;56.20;33.27;;;9.20;99.90;;;;;;5045260;28;20440;-48
2023/03/21 05:54:48;;;;;;;55.73;32.00;;;9.20;99.90;;;;;;5030287;28;20070;-48
2023/03/21 05:57:14;;;;;;;64.37;36.30;;;9.20;99.90;;;;;;5042267;28;20332;-50
2023/03/21 05:59:40;;;;;;;60.38;33.95;;;9.20;99.90;;;;;;5044417;28;20041;-48
2023/03/21 06:02:05;;;;;;;59.73;33.47;;;9.20;99.90;;;;;;5031867;28;20118;-48
2023/03/21 06:04:31;;;;;;;61.17;35.67;;;9.20;99.90;;;;;;5030925;28;20044;-49
2023/03/21 06:06:57;;;;;;;62.53;37.23;;;9.20;99.90;;;;;;5030338;28;20037;-48
2023/03/21 06:09:23;;;;;;;62.75;36.33;;;9.20;99.90;;;;;;5030979;28;20483;-50
2023/03/21 06:11:51;;;;;;;64.43;37.47;;;9.20;99.90;;;;;;5047498;28;20114;-49
2023/03/21 06:14:18;;;;;;;64.18;36.92;;;9.20;99.90;;;;;;5030642;28;20506;-49
2023/03/21 06:16:44;;;;;;;69.25;37.88;;;9.20;99.90;;;;;;5039250;28;20072;-48
2023/03/21 06:19:10;;;;;;;63.38;35.50;;;9.20;99.90;;;;;;5042505;28;20069;-49
2023/03/21 06:21:36;;;;;;;62.80;33.88;;;9.20;99.90;;;;;;5030882;28;20387;-48
2023/03/21 06:24:02;;;;;;;60.17;36.28;;;9.20;99.90;;;;;;5030541;28;20071;-48
2023/03/21 06:26:28;;;;;;;64.13;35.70;;;9.20;99.90;;;;;;5037554;28;20056;-49
2023/03/21 06:28:54;;;;;;;60.20;36.15;;;9.30;99.90;;;;;;5029670;28;20037;-49
2023/03/21 06:31:24;;;;;;;50.28;30.83;;;9.30;99.90;;;;;;5045978;28;20041;-48
2023/03/21 06:33:50;;;;;;;53.33;31.65;;;9.20;99.90;;;;;;5047357;28;20045;-50
2023/03/21 06:36:16;;;;;;;53.58;32.65;;;9.30;99.90;;;;;;5035343;28;20041;-48
2023/03/21 06:38:42;;;;;;;47.95;29.58;;;9.30;99.90;;;;;;5045194;28;20037;-48
2023/03/21 06:41:08;;;;;;;47.23;28.80;;;9.30;99.90;;;;;;5043401;28;20045;-48
2023/03/21 06:43:34;;;;;;;50.78;30.60;;;9.30;99.90;;;;;;5030698;28;20331;-48
2023/03/21 06:46:00;;;;;;;50.65;31.02;;;9.30;99.90;;;;;;5038249;28;20049;-49
2023/03/21 06:48:27;;;;;;;52.00;30.38;;;9.30;99.90;;;;;;5041991;28;20037;-48
2023/03/21 06:50:52;;;;;;;;;;;9.30;99.90;;;;;;5040301;28;20048;-50
2023/03/21 06:53:19;;;;;;;39.42;24.50;;;9.40;99.90;;;;;;5030225;28;20370;-49
2023/03/21 06:55:49;;;;;;;47.88;26.65;;;9.40;99.90;;;;;;5040132;28;20045;-48
2023/03/21 06:58:15;;;;;;;39.25;25.80;;;9.40;99.90;;;;;;5041321;28;20041;-50
2023/03/21 07:00:41;;;;;;;39.10;26.13;;;9.40;99.90;;;;;;5041320;28;20406;-49
2023/03/21 07:03:06;;;;;;;41.97;27.23;;;9.40;99.90;;;;;;5037942;28;20576;-48
2023/03/21 07:05:34;;;;;;;40.27;24.73;;;9.40;99.90;;;;;;5045188;28;20029;-50
2023/03/21 07:08:00;;;;;;;44.08;27.23;;;9.40;99.90;;;;;;5035319;28;20041;-48
2023/03/21 07:10:25;;;;;;;40.70;23.90;;;9.40;99.90;;;;;;5038444;28;20029;-48
2023/03/21 07:12:51;;;;;;;38.13;23.75;;;9.40;99.90;;;;;;5043141;28;20127;-48
2023/03/21 07:15:16;;;;;;;35.73;24.03;;;9.40;99.90;;;;;;5039552;28;20077;-48
2023/03/21 07:17:42;;;;;;;36.13;24.63;;;9.40;99.90;;;;;;5038583;28;20633;-49
2023/03/21 07:20:11;;;;;;;36.33;25.33;;;9.30;99.90;;;;;;5036190;28;20337;-48
2023/03/21 07:22:37;;;;;;;38.83;24.67;;;9.40;99.90;;;;;;5032436;28;20048;-48
2023/03/21 07:25:03;;;;;;;39.33;23.67;;;9.30;99.90;;;;;;5042917;28;20402;-49
2023/03/21 07:27:29;;;;;;;33.60;22.13;;;9.30;99.90;;;;;;5036670;28;20069;-52
2023/03/21 07:29:54;;;;;;;36.55;22.70;;;9.30;99.90;;;;;;5048912;28;20068;-48
2023/03/21 07:32:20;;;;;;;31.98;21.98;;;9.30;99.90;;;;;;5049264;28;20025;-48
2023/03/21 07:34:45;;;;;;;33.53;20.88;;;9.30;99.90;;;;;;5048726;28;20517;-48
2023/03/21 07:37:11;;;;;;;33.87;21.93;;;9.30;99.90;;;;;;5041319;28;20042;-49
2023/03/21 07:39:37;;;;;;;35.07;21.53;;;9.30;99.90;;;;;;5041926;28;20045;-48
2023/03/21 07:42:02;;;;;;;35.88;22.50;;;9.30;99.90;;;;;;5050198;28;20041;-50
2023/03/21 07:44:29;;;;;;;34.05;20.80;;;9.30;99.90;;;;;;5038397;28;20099;-48
2023/03/21 07:46:55;;;;;;;30.70;21.35;;;9.30;99.90;;;;;;5037779;28;20051;-48
2023/03/21 07:49:21;;;;;;;36.03;20.52;;;9.30;99.90;;;;;;5042479;28;20061;-48
2023/03/21 07:51:46;;;;;;;34.60;22.20;;;9.30;99.90;;;;;;5042336;28;20091;-48
2023/03/21 07:54:12;;;;;;;40.70;22.43;;;9.30;99.90;;;;;;5038468;28;20499;-49
2023/03/21 07:56:37;;;;;;;30.03;19.00;;;9.30;99.90;;;;;;5042350;28;20045;-48
2023/03/21 07:59:04;;;;;;;35.80;19.77;;;9.30;99.90;;;;;;5039665;28;20386;-48
2023/03/21 08:01:30;;;;;;;38.38;22.13;;;9.30;99.90;;;;;;5036544;28;20059;-48
2023/03/21 08:03:55;;;;;;;32.25;21.10;;;9.40;99.90;;;;;;5042467;28;20034;-49
2023/03/21 08:06:21;;;;;;;32.80;19.50;;;9.40;99.90;;;;;;5036485;28;20036;-48
2023/03/21 08:08:47;;;;;;;36.28;20.60;;;9.40;99.90;;;;;;5033346;28;20291;-48
2023/03/21 08:11:13;;;;;;;33.78;19.95;;;9.40;99.90;;;;;;5047162;28;20103;-49
2023/03/21 08:13:39;;;;;;;36.75;20.70;;;9.40;99.90;;;;;;5034915;28;20037;-50
2023/03/21 08:16:06;;;;;;;;;;;9.40;99.90;;;;;;5038826;28;20511;-50
2023/03/21 08:18:31;;;;;;;33.55;20.65;;;9.50;99.90;;;;;;5030715;28;19917;-49
2023/03/21 08:20:57;;;;;;;30.50;19.23;;;9.50;99.90;;;;;;5040006;28;20084;-51
2023/03/21 08:23:24;;;;;;;28.45;19.25;;;9.50;99.90;;;;;;5029708;28;20036;-49
2023/03/21 08:25:51;;;;;;;38.00;19.33;;;9.50;99.90;;;;;;5040241;28;20037;-49
2023/03/21 08:28:17;;;;;;;40.08;21.23;;;9.50;99.90;;;;;;5037451;28;20044;-52
2023/03/21 08:30:43;;;;;;;35.47;20.40;;;9.50;99.90;;;;;;5043264;28;20634;-50
2023/03/21 08:33:08;;;;;;;35.23;19.73;;;9.60;99.90;;;;;;5041101;28;20299;-51
2023/03/21 08:35:34;;;;;;;36.40;19.88;;;9.60;99.90;;;;;;5039000;28;20025;-49
2023/03/21 08:38:03;;;;;;;32.08;19.40;;;9.60;99.90;;;;;;5039143;28;20099;-49
2023/03/21 08:40:29;;;;;;;30.50;18.13;;;9.60;99.90;;;;;;5040721;28;20048;-52
2023/03/21 08:42:55;;;;;;;27.88;18.67;;;9.70;99.90;;;;;;5039366;28;20465;-50
2023/03/21 08:45:21;;;;;;;31.48;18.73;;;9.70;99.90;;;;;;5036640;28;20410;-52
2023/03/21 08:47:47;;;;;;;;;;;9.70;99.90;;;;;;5039723;28;20033;-49
2023/03/21 08:50:19;;;;;;;35.05;18.08;;;9.70;99.90;;;;;;5037552;28;19925;-51
2023/03/21 08:52:45;;;;;;;30.45;18.00;;;9.70;99.90;;;;;;5038521;28;20532;-53
2023/03/21 08:55:11;;;;;;;31.67;18.05;;;9.70;99.90;;;;;;5038322;28;20049;-52
2023/03/21 08:57:37;;;;;;;31.90;18.23;;;9.70;99.90;;;;;;5041660;28;20032;-49
2023/03/21 09:00:11;;;;;;;34.35;17.00;;;9.70;99.90;;;;;;5039610;28;20033;-49
2023/03/21 09:02:36;;;;;;;30.35;17.25;;;9.70;99.90;;;;;;5039524;28;20474;-51
2023/03/21 09:05:04;;;;;;;36.92;18.85;;;9.80;99.90;;;;;;5041048;28;20095;-48
2023/03/21 09:07:33;;;;;;;34.85;17.23;;;9.80;99.90;;;;;;5040621;28;20047;-48
2023/03/21 09:09:59;;;;;;;28.45;16.60;;;9.80;99.90;;;;;;5039655;28;20060;-48
2023/03/21 09:12:25;;;;;;;32.83;16.60;;;9.80;99.90;;;;;;5038959;28;20034;-51
2023/03/21 09:14:52;;;;;;;27.55;15.68;;;9.80;99.90;;;;;;5039934;28;20295;-49
2023/03/21 09:17:18;;;;;;;26.35;16.35;;;9.80;99.90;;;;;;5038270;28;20342;-48
2023/03/21 09:19:45;;;;;;;30.30;16.75;;;9.80;99.90;;;;;;5036500;28;20032;-48
2023/03/21 09:22:14;;;;;;;31.40;16.33;;;9.90;99.90;;;;;;5037367;28;20402;-48
2023/03/21 09:24:44;;;;;;;35.58;17.00;;;9.90;99.90;;;;;;5034075;28;20045;-48
2023/03/21 09:27:10;;;;;;;34.42;15.75;;;9.90;99.90;;;;;;5038915;28;20330;-50
2023/03/21 09:29:36;;;;;;;28.20;15.35;;;9.90;99.90;;;;;;5038583;28;20038;-49
2023/03/21 09:32:03;;;;;;;26.55;15.35;;;9.90;99.90;;;;;;5040124;28;20033;-52
2023/03/21 09:34:28;;;;;;;31.50;16.52;;;9.90;99.90;;;;;;5037618;28;20080;-51
2023/03/21 09:36:55;;;;;;;30.45;15.98;;;9.90;99.90;;;;;;5037143;28;20175;-48
2023/03/21 09:39:21;;;;;;;25.20;15.93;;;9.90;99.90;;;;;;5043094;28;20378;-49
2023/03/21 09:42:16;;;;;;;23.98;15.98;;;9.90;99.90;;;;;;5041346;28;20495;-49
2023/03/21 09:45:05;;;;;;;26.80;16.33;;;9.90;99.90;;;;;;5042660;28;20386;-49
2023/03/21 09:47:52;;;;;;;28.92;16.50;;;9.90;99.90;;;;;;5038496;28;20506;-50
2023/03/21 09:50:26;;;;;;;28.63;15.05;;;10.00;99.90;;;;;;5043468;28;20060;-49
2023/03/21 09:53:22;;;;;;;29.52;17.33;;;10.00;99.90;;;;;;5043729;28;20040;-48
2023/03/21 09:55:48;;;;;;;30.23;16.52;;;10.00;99.90;;;;;;5035110;28;20041;-50
2023/03/21 09:58:31;;;;;;;24.98;15.98;;;10.00;99.90;;;;;;5034014;28;20496;-53
2023/03/21 10:01:28;;;;;;;31.25;16.13;;;10.00;99.90;;;;;;5040605;28;20041;-49
2023/03/21 10:03:55;;;;;;;33.35;18.35;;;10.10;99.90;;;;;;5036482;28;20398;-48
2023/03/21 10:06:28;;;;;;;32.88;18.08;;;10.10;99.90;;;;;;5040193;28;20131;-49
2023/03/21 10:08:57;;;;;;;32.70;15.98;;;10.20;99.90;;;;;;5037563;28;20041;-50
2023/03/21 10:11:34;;;;;;;29.27;16.55;;;10.10;99.90;;;;;;5039511;28;20382;-48
2023/03/21 10:14:11;;;;;;;29.10;17.00;;;10.10;99.90;;;;;;5033347;28;20115;-49
2023/03/21 10:16:42;;;;;;;26.20;16.65;;;10.10;99.90;;;;;;5037201;28;20040;-48
2023/03/21 10:19:14;;;;;;;27.15;17.45;;;10.10;99.90;;;;;;5034396;28;20095;-52
2023/03/21 10:21:42;;;;;;;29.08;17.33;;;10.10;99.90;;;;;;5037127;28;20044;-52
2023/03/21 10:24:16;;;;;;;24.35;16.45;;;10.10;99.90;;;;;;5041628;28;20405;-48
2023/03/21 10:26:43;;;;;;;29.67;17.02;;;10.20;99.90;;;;;;5041685;28;20051;-53
2023/03/21 10:29:12;;;;;;;27.70;16.45;;;10.20;99.90;;;;;;5040951;28;20043;-50
2023/03/21 10:31:40;;;;;;;28.65;16.67;;;10.20;99.90;;;;;;5044508;28;20498;-51
2023/03/21 10:34:16;;;;;;;24.85;16.45;;;10.20;99.90;;;;;;5043911;28;20402;-49
2023/03/21 10:36:42;;;;;;;27.90;17.58;;;10.20;99.90;;;;;;5038662;28;20057;-50
2023/03/21 10:39:26;;;;;;;29.13;17.77;;;10.20;99.90;;;;;;5040445;28;20045;-49
2023/03/21 10:41:52;;;;;;;25.67;17.05;;;10.20;99.90;;;;;;5041574;28;20052;-49
2023/03/21 10:44:18;;;;;;;24.60;16.75;;;10.30;99.90;;;;;;5042570;28;20123;-50
2023/03/21 10:46:54;;;;;;;26.75;16.98;;;10.30;99.90;;;;;;5042242;28;20090;-53
2023/03/21 10:49:24;;;;;;;30.58;15.70;;;10.30;99.90;;;;;;5045394;28;20047;-49
2023/03/21 10:51:55;;;;;;;26.33;15.77;;;10.30;99.90;;;;;;5045004;28;20075;-49
2023/03/21 10:54:31;;;;;;;28.33;17.30;;;10.40;99.90;;;;;;5038277;28;20114;-50
2023/03/21 10:56:59;;;;;;;30.60;14.98;;;10.40;99.90;;;;;;5045181;28;20049;-52
2023/03/21 10:59:34;;;;;;;20.95;13.60;;;10.40;99.90;;;;;;5043686;28;20589;-52
2023/03/21 11:02:03;;;;;;;18.00;12.02;;;10.40;99.90;;;;;;5047456;28;20037;-50
2023/03/21 11:04:29;;;;;;;16.15;11.73;;;10.40;99.90;;;;;;5044576;28;20033;-53
2023/03/21 11:07:05;;;;;;;22.85;10.70;;;10.40;99.90;;;;;;5045330;28;20462;-51
2023/03/21 11:09:57;;;;;;;23.83;11.80;;;10.40;99.90;;;;;;5038560;28;20037;-50
2023/03/21 11:12:37;;;;;;;20.00;10.77;;;10.50;99.90;;;;;;5043187;28;20523;-50
2023/03/21 11:15:25;;;;;;;18.92;10.18;;;10.50;99.90;;;;;;5043522;28;20036;-50
2023/03/21 11:17:50;;;;;;;15.95;9.98;;;10.50;99.90;;;;;;5045092;28;20080;-51
2023/03/21 11:20:18;;;;;;;17.17;9.77;;;10.50;99.90;;;;;;5045182;28;20064;-53
2023/03/21 11:22:45;;;;;;;13.10;9.20;;;10.50;99.90;;;;;;5045948;28;20499;-53
2023/03/21 11:25:22;;;;;;;16.27;9.50;;;10.60;99.90;;;;;;5045573;28;20476;-49
2023/03/21 11:27:53;;;;;;;17.20;9.25;;;10.60;99.90;;;;;;5035570;28;20045;-53
2023/03/21 11:30:25;;;;;;;12.73;9.07;;;10.70;99.90;;;;;;5033705;28;20390;-48
2023/03/21 11:32:56;;;;;;;18.45;8.77;;;10.70;99.90;;;;;;5036413;28;20045;-52
2023/03/21 11:35:26;;;;;;;14.77;8.20;;;10.80;99.90;;;;;;5036154;28;20040;-52
2023/03/21 11:37:55;;;;;;;14.82;8.23;;;10.80;99.90;;;;;;5038723;28;20302;-52
2023/03/21 11:40:23;;;;;;;18.35;8.85;;;10.90;99.90;;;;;;5036484;28;20329;-51
2023/03/21 11:43:01;;;;;;;19.25;9.30;;;10.90;99.90;;;;;;5042434;28;20898;-52
2023/03/21 11:45:31;;;;;;;14.88;8.65;;;10.90;99.90;;;;;;5039219;28;20159;-49
2023/03/21 11:47:59;;;;;;;12.02;8.90;;;11.00;99.90;;;;;;5039203;28;20573;-52
2023/03/21 11:50:34;;;;;;;14.63;8.07;;;11.00;99.90;;;;;;5038696;28;20080;-50
2023/03/21 11:53:19;;;;;;;11.23;7.57;;;11.10;99.90;;;;;;5041192;28;20467;-52
2023/03/21 11:56:27;;;;;;;11.93;7.63;;;11.10;99.90;;;;;;5038222;28;20103;-51
2023/03/21 11:59:20;;;;;;;14.68;8.02;;;11.10;99.90;;;;;;5028373;28;20699;-51
2023/03/21 12:02:25;;;;;;;18.30;8.15;;;11.10;99.90;;;;;;5038122;28;20148;-53
2023/03/21 12:05:18;;;;;;;18.40;9.13;;;11.10;99.90;;;;;;5037542;28;20045;-52
2023/03/21 12:08:08;;;;;;;11.40;8.02;;;11.20;99.90;;;;;;5038191;28;20120;-51
2023/03/21 12:10:50;;;;;;;18.25;7.95;;;11.20;99.90;;;;;;5037820;28;20045;-53
2023/03/21 12:13:22;;;;;;;12.30;7.78;;;11.30;99.90;;;;;;5033120;28;20473;-53
2023/03/21 12:16:12;;;;;;;12.30;8.00;;;11.30;99.90;;;;;;5039108;28;20510;-52
2023/03/21 12:18:50;;;;;;;14.27;7.63;;;11.40;99.90;;;;;;5039262;28;20486;-50
2023/03/21 12:21:30;;;;;;;15.38;7.68;;;11.40;99.90;;;;;;5041439;28;20091;-50
2023/03/21 12:24:05;;;;;;;15.07;7.82;;;11.50;99.90;;;;;;5039287;28;20116;-53
2023/03/21 12:26:50;;;;;;;12.90;7.75;;;11.50;99.90;;;;;;5034647;28;20864;-51
2023/03/21 12:29:30;;;;;;;13.80;7.35;;;11.50;99.90;;;;;;5036685;28;20041;-51
2023/03/21 12:32:27;;;;;;;13.88;7.25;;;11.60;99.90;;;;;;5039200;28;20051;-52
2023/03/21 12:35:23;;;;;;;10.23;6.88;;;11.60;99.90;;;;;;5036942;28;20037;-54
2023/03/21 12:38:18;;;;;;;12.93;6.20;;;11.70;99.90;;;;;;5034368;28;20463;-52
2023/03/21 12:41:14;;;;;;;13.45;6.45;;;11.70;99.90;;;;;;5033710;28;20038;-54
2023/03/21 12:44:09;;;;;;;9.35;6.22;;;11.70;99.90;;;;;;5038264;28;20521;-51
2023/03/21 12:46:58;;;;;;;16.50;6.90;;;11.70;99.90;;;;;;5037338;28;20040;-51
2023/03/21 12:49:49;;;;;;;11.20;7.07;;;11.70;99.90;;;;;;5038591;28;20047;-49
2023/03/21 12:52:27;;;;;;;12.65;7.50;;;11.70;99.90;;;;;;5039876;28;20538;-52
2023/03/21 12:54:58;;;;;;;12.43;6.43;;;11.70;99.90;;;;;;5035917;28;20393;-53
2023/03/21 12:57:43;;;;;;;13.95;7.10;;;11.70;99.90;;;;;;5041793;28;20619;-54
2023/03/21 13:00:27;;;;;;;10.65;6.30;;;11.70;99.90;;;;;;5042142;28;20048;-50